Time;durP1;ratioP1;P1;durP2;ratioP2;P2;SDS_P1;SDS_P2;PMS_P1;PMS_P2;Temp;Humidity;BMP_temperature;BMP_pressure;BME280_temperature;BME280_humidity;BME280_pressure;Samples;Min_cycle;Max_cycle;Signal;HPM_P1;HPM_P2
2022/01/07 00:00:16;;;;;;;12.53;9.10;;;;;;;;;;6184885;23;20206;-88
2022/01/07 00:02:48;;;;;;;15.07;8.90;;;;;;;;;;6185149;23;20209;-88
2022/01/07 00:05:18;;;;;;;12.37;8.50;;;;;;;;;;6186244;23;20200;-89
2022/01/07 00:07:52;;;;;;;11.37;8.37;;;;;;;;;;6185533;23;20182;-89
2022/01/07 00:10:21;;;;;;;10.53;7.70;;;;;;;;;;6209900;23;20176;-88
2022/01/07 00:12:52;;;;;;;11.53;8.20;;;;;;;;;;6213965;23;20220;-89
2022/01/07 00:15:20;;;;;;;11.50;7.50;;;;;;;;;;6214842;23;20173;-88
2022/01/07 00:17:51;;;;;;;10.77;7.03;;;;;;;;;;6215559;23;20195;-89
2022/01/07 00:20:19;;;;;;;9.73;7.23;;;;;;;;;;6214883;23;20205;-89
2022/01/07 00:22:48;;;;;;;10.23;6.50;;;;;;;;;;6215838;23;20189;-88
2022/01/07 00:25:25;;;;;;;9.57;6.83;;;;;;;;;;6216377;23;20184;-89
2022/01/07 00:27:52;;;;;;;14.10;8.10;;;;;;;;;;6215912;23;20176;-88
2022/01/07 00:30:25;;;;;;;12.17;7.93;;;;;;;;;;6215173;23;20223;-87
2022/01/07 00:32:54;;;;;;;12.53;7.80;;;;;;;;;;6215601;23;20199;-88
2022/01/07 00:35:24;;;;;;;11.97;7.70;;;;;;;;;;6215247;23;20196;-88
2022/01/07 00:37:52;;;;;;;12.17;7.77;;;;;;;;;;6214999;23;20177;-87
2022/01/07 00:40:22;;;;;;;11.00;7.90;;;;;;;;;;6215093;23;20211;-87
2022/01/07 00:42:50;;;;;;;15.60;8.10;;;;;;;;;;6214602;23;20292;-87
2022/01/07 00:45:18;;;;;;;15.27;8.40;;;;;;;;;;6216314;23;20181;-87
2022/01/07 00:47:45;;;;;;;11.70;7.40;;;;;;;;;;6216019;23;20184;-87
2022/01/07 00:50:15;;;;;;;10.37;7.47;;;;;;;;;;6216918;23;20165;-88
2022/01/07 00:52:42;;;;;;;10.93;7.40;;;;;;;;;;6216432;23;20247;-88
2022/01/07 00:55:11;;;;;;;12.10;7.90;;;;;;;;;;6217569;23;20173;-87
2022/01/07 00:57:39;;;;;;;9.47;7.70;;;;;;;;;;6217241;23;20204;-87
2022/01/07 01:00:11;;;;;;;11.83;8.07;;;;;;;;;;6216954;23;20193;-87
2022/01/07 01:02:38;;;;;;;14.17;8.33;;;;;;;;;;6214493;23;20193;-87
2022/01/07 01:05:06;;;;;;;13.27;8.27;;;;;;;;;;6214690;23;20204;-87
2022/01/07 01:07:35;;;;;;;10.40;7.90;;;;;;;;;;6215486;23;20173;-87
2022/01/07 01:10:05;;;;;;;12.90;8.10;;;;;;;;;;6216922;23;20177;-88
2022/01/07 01:12:33;;;;;;;11.60;8.73;;;;;;;;;;6214326;23;20189;-87
2022/01/07 01:15:00;;;;;;;15.60;8.90;;;;;;;;;;6213999;23;20235;-88
2022/01/07 01:17:27;;;;;;;13.10;8.40;;;;;;;;;;6214756;23;20200;-87
2022/01/07 01:19:55;;;;;;;10.53;8.10;;;;;;;;;;6215156;23;20205;-87
2022/01/07 01:22:22;;;;;;;13.90;9.27;;;;;;;;;;6214664;23;20204;-87
2022/01/07 01:24:51;;;;;;;15.27;8.60;;;;;;;;;;6214987;23;20196;-88
2022/01/07 01:27:19;;;;;;;12.23;8.57;;;;;;;;;;6215781;23;20174;-88
2022/01/07 01:29:46;;;;;;;10.90;7.80;;;;;;;;;;6214495;23;20174;-88
2022/01/07 01:32:16;;;;;;;11.63;7.73;;;;;;;;;;6214185;23;20703;-88
2022/01/07 01:34:43;;;;;;;12.87;7.83;;;;;;;;;;6214264;23;20227;-88
2022/01/07 01:37:10;;;;;;;9.73;7.43;;;;;;;;;;6214961;23;20173;-88
2022/01/07 01:39:38;;;;;;;11.77;7.50;;;;;;;;;;6215444;23;20189;-87
2022/01/07 01:42:07;;;;;;;11.17;8.07;;;;;;;;;;6214394;23;20188;-87
2022/01/07 01:44:34;;;;;;;13.23;8.40;;;;;;;;;;6214857;23;20173;-87
2022/01/07 01:47:02;;;;;;;12.33;8.00;;;;;;;;;;6217201;23;20194;-87
2022/01/07 01:49:30;;;;;;;12.47;7.87;;;;;;;;;;6217377;23;20200;-87
2022/01/07 01:51:57;;;;;;;10.63;8.07;;;;;;;;;;6216145;23;20197;-87
2022/01/07 01:54:24;;;;;;;12.63;9.10;;;;;;;;;;6228637;23;20173;-87
2022/01/07 01:56:52;;;;;;;10.50;8.90;;;;;;;;;;6227416;23;20220;-87
2022/01/07 01:59:25;;;;;;;9.67;6.77;;;;;;;;;;6221528;23;20185;-87
2022/01/07 02:01:53;;;;;;;11.57;6.90;;;;;;;;;;6216904;23;20201;-87
2022/01/07 02:04:20;;;;;;;9.50;6.97;;;;;;;;;;6217401;23;20196;-87
2022/01/07 02:06:47;;;;;;;8.83;7.03;;;;;;;;;;6217080;23;20186;-87
2022/01/07 02:09:15;;;;;;;10.87;7.10;;;;;;;;;;6216929;23;20188;-87
2022/01/07 02:11:42;;;;;;;11.90;8.00;;;;;;;;;;6217616;23;20176;-88
2022/01/07 02:14:10;;;;;;;9.97;7.07;;;;;;;;;;6217143;23;20193;-87
2022/01/07 02:16:39;;;;;;;9.03;6.60;;;;;;;;;;6217679;23;20169;-87
2022/01/07 02:19:06;;;;;;;10.40;6.80;;;;;;;;;;6216746;23;20177;-87
2022/01/07 02:21:37;;;;;;;9.53;7.13;;;;;;;;;;6216903;23;20184;-87
2022/01/07 02:24:05;;;;;;;10.73;7.77;;;;;;;;;;6217280;23;20213;-87
2022/01/07 02:26:33;;;;;;;11.43;7.53;;;;;;;;;;6216701;23;20244;-87
2022/01/07 02:29:01;;;;;;;9.60;7.00;;;;;;;;;;6217280;23;20223;-87
2022/01/07 02:31:28;;;;;;;11.13;7.10;;;;;;;;;;6236545;23;20173;-87
2022/01/07 02:33:55;;;;;;;11.97;7.17;;;;;;;;;;6217003;23;20212;-87
2022/01/07 02:36:23;;;;;;;11.00;7.60;;;;;;;;;;6220471;23;20609;-88
2022/01/07 02:38:51;;;;;;;11.87;6.70;;;;;;;;;;6219004;23;20240;-87
2022/01/07 02:41:19;;;;;;;9.90;6.63;;;;;;;;;;6223969;23;20185;-87
2022/01/07 02:43:46;;;;;;;9.07;6.50;;;;;;;;;;6216735;23;20204;-87
2022/01/07 02:46:13;;;;;;;11.60;6.87;;;;;;;;;;6215909;23;20238;-87
2022/01/07 02:48:40;;;;;;;11.00;6.93;;;;;;;;;;6216623;23;20178;-87
2022/01/07 02:51:08;;;;;;;8.00;6.20;;;;;;;;;;6214723;23;20189;-87
2022/01/07 02:53:59;;;;;;;7.57;6.77;;;;;;;;;;6188662;23;20201;-91
2022/01/07 03:05:41;;;;;;;9.97;6.63;;;;;;;;;;6181809;23;20199;-89
2022/01/07 03:08:48;;;;;;;;;;;;;;;;;;;;;
2022/01/07 03:14:35;;;;;;;11.57;6.50;;;;;;;;;;6181871;23;20194;-88
2022/01/07 03:20:08;;;;;;;10.50;7.17;;;;;;;;;;6158978;23;20245;-89
2022/01/07 03:22:42;;;;;;;9.13;6.57;;;;;;;;;;6184275;23;20178;-88
2022/01/07 03:25:18;;;;;;;11.73;6.60;;;;;;;;;;6185421;23;20173;-88
2022/01/07 03:30:37;;;;;;;10.87;7.00;;;;;;;;;;6184439;23;20662;-89
2022/01/07 03:33:15;;;;;;;8.73;6.63;;;;;;;;;;6185868;23;20193;-88
2022/01/07 03:38:30;;;;;;;10.67;7.43;;;;;;;;;;6185665;23;20177;-88
2022/01/07 03:41:02;;;;;;;9.60;7.77;;;;;;;;;;6186156;23;20189;-88
2022/01/07 03:43:31;;;;;;;8.57;6.43;;;;;;;;;;6188983;23;20265;-89
2022/01/07 03:46:21;;;;;;;8.00;7.20;;;;;;;;;;6186185;23;20184;-90
2022/01/07 03:48:56;;;;;;;9.67;6.73;;;;;;;;;;6185300;23;20174;-89
2022/01/07 03:51:56;;;;;;;9.43;6.33;;;;;;;;;;6184643;23;20173;-89
2022/01/07 03:54:32;;;;;;;9.87;6.60;;;;;;;;;;6184948;23;20201;-89
2022/01/07 04:00:05;;;;;;;9.77;6.57;;;;;;;;;;6094728;23;20195;-89
2022/01/07 04:02:49;;;;;;;9.63;6.90;;;;;;;;;;6184806;23;20170;-89
2022/01/07 04:05:24;;;;;;;9.33;6.10;;;;;;;;;;6173767;23;20196;-89
2022/01/07 04:08:10;;;;;;;9.57;6.43;;;;;;;;;;6185044;23;20274;-89
2022/01/07 04:10:40;;;;;;;8.77;6.50;;;;;;;;;;6168629;23;20185;-89
2022/01/07 04:13:25;;;;;;;10.40;6.93;;;;;;;;;;6184535;23;20193;-89
2022/01/07 04:18:57;;;;;;;9.00;6.10;;;;;;;;;;6121982;23;20177;-88
2022/01/07 04:21:49;;;;;;;9.20;6.47;;;;;;;;;;6202996;23;20289;-90
2022/01/07 04:24:50;;;;;;;11.20;7.00;;;;;;;;;;6154403;23;20191;-90
2022/01/07 04:27:30;;;;;;;9.13;6.57;;;;;;;;;;6210908;23;20189;-91
2022/01/07 04:30:15;;;;;;;9.87;6.20;;;;;;;;;;6210811;23;20162;-91
2022/01/07 04:38:56;;;;;;;8.40;6.87;;;;;;;;;;6090541;23;20243;-89
2022/01/07 04:47:32;;;;;;;9.20;6.10;;;;;;;;;;6181179;23;20186;-89
2022/01/07 04:50:05;;;;;;;6.43;5.80;;;;;;;;;;6184724;23;20166;-89
2022/01/07 04:52:53;;;;;;;6.80;5.80;;;;;;;;;;6183300;23;20177;-88
2022/01/07 04:58:51;;;;;;;7.20;5.23;;;;;;;;;;6155542;23;20174;-89
2022/01/07 05:01:24;;;;;;;9.53;5.90;;;;;;;;;;6184419;23;20250;-88
2022/01/07 05:04:12;;;;;;;7.00;6.00;;;;;;;;;;6184815;23;20194;-89
2022/01/07 05:06:55;;;;;;;11.07;6.40;;;;;;;;;;6186576;23;20173;-89
2022/01/07 05:09:25;;;;;;;7.77;6.00;;;;;;;;;;6208513;23;20177;-89
2022/01/07 05:14:47;;;;;;;9.87;5.73;;;;;;;;;;6187822;23;20204;-89
2022/01/07 05:17:23;;;;;;;8.33;6.20;;;;;;;;;;6185951;23;20169;-89
2022/01/07 05:20:09;;;;;;;8.10;6.10;;;;;;;;;;6185203;23;20166;-88
2022/01/07 05:22:52;;;;;;;7.77;6.60;;;;;;;;;;6198075;23;20166;-88
2022/01/07 05:25:24;;;;;;;10.07;6.80;;;;;;;;;;6189995;23;20205;-89
2022/01/07 05:28:08;;;;;;;9.37;6.23;;;;;;;;;;6186673;23;20173;-88
2022/01/07 05:33:36;;;;;;;10.77;6.63;;;;;;;;;;6164923;23;20217;-89
2022/01/07 05:36:08;;;;;;;7.40;5.93;;;;;;;;;;6186581;23;20184;-88
2022/01/07 05:41:57;;;;;;;10.47;6.63;;;;;;;;;;6184377;23;20197;-89
2022/01/07 05:44:40;;;;;;;8.97;6.23;;;;;;;;;;6183168;23;20292;-90
2022/01/07 05:47:20;;;;;;;9.07;6.20;;;;;;;;;;6186727;23;20236;-88
2022/01/07 05:53:07;;;;;;;11.23;7.17;;;;;;;;;;6186445;23;20226;-88
2022/01/07 05:55:48;;;;;;;8.60;6.53;;;;;;;;;;6186832;23;20190;-89
2022/01/07 06:04:28;;;;;;;8.47;6.83;;;;;;;;;;6065015;23;20208;-91
2022/01/07 06:07:17;;;;;;;10.43;6.80;;;;;;;;;;6184254;23;20180;-90
2022/01/07 06:09:54;;;;;;;11.03;6.67;;;;;;;;;;6186225;23;20174;-89
2022/01/07 06:15:24;;;;;;;10.33;7.03;;;;;;;;;;6184496;23;20181;-88
2022/01/07 06:21:30;;;;;;;11.23;6.63;;;;;;;;;;6175169;23;20198;-89
2022/01/07 06:24:27;;;;;;;9.27;6.37;;;;;;;;;;6185305;23;20194;-89
2022/01/07 06:27:27;;;;;;;10.03;7.10;;;;;;;;;;6146520;23;20177;-88
2022/01/07 06:30:38;;;;;;;;;;;;;;;;;;;;;
2022/01/07 06:33:25;;;;;;;12.87;6.90;;;;;;;;;;6162473;23;20200;-87
2022/01/07 06:39:10;;;;;;;;;;;;;;;;;;;;;
2022/01/07 06:42:19;;;;;;;11.37;7.30;;;;;;;;;;6185650;23;20174;-88
2022/01/07 06:45:14;;;;;;;9.80;6.33;;;;;;;;;;6186284;23;20204;-88
2022/01/07 06:51:14;;;;;;;11.87;6.83;;;;;;;;;;6066201;23;20179;-88
2022/01/07 06:54:11;;;;;;;9.33;6.57;;;;;;;;;;6064680;23;20308;-92
2022/01/07 06:57:29;;;;;;;;;;;;;;;;;;;;;
2022/01/07 07:00:47;;;;;;;;;;;;;;;;;;;;;
2022/01/07 08:37:01;;;;;;;21.07;11.87;;;;;;;;;;6096609;23;20173;-89
2022/01/07 08:52:45;;;;;;;9.37;6.30;;;;;;;;;;5938566;23;20214;-91
2022/01/07 09:04:51;;;;;;;9.13;6.80;;;;;;;;;;6108932;23;20225;-90
2022/01/07 09:07:19;;;;;;;8.83;6.60;;;;;;;;;;6159948;23;20167;-89
2022/01/07 09:13:16;;;;;;;8.63;6.40;;;;;;;;;;6039572;23;20204;-92
2022/01/07 09:25:04;;;;;;;7.37;5.70;;;;;;;;;;6103431;23;20223;-91
2022/01/07 09:31:15;;;;;;;9.13;6.47;;;;;;;;;;6055716;23;20171;-88
2022/01/07 09:36:22;;;;;;;7.97;6.50;;;;;;;;;;6214615;23;20191;-88
2022/01/07 09:38:52;;;;;;;7.83;6.20;;;;;;;;;;6216640;23;20195;-86
2022/01/07 09:41:26;;;;;;;7.60;5.97;;;;;;;;;;6215728;23;20193;-87
2022/01/07 09:44:04;;;;;;;8.43;6.37;;;;;;;;;;6218275;23;20202;-88
2022/01/07 09:46:32;;;;;;;7.13;5.63;;;;;;;;;;6219289;23;20181;-87
2022/01/07 09:49:04;;;;;;;9.20;5.73;;;;;;;;;;6219526;23;20204;-88
2022/01/07 09:51:38;;;;;;;7.83;5.90;;;;;;;;;;6218253;23;20170;-87
2022/01/07 09:54:09;;;;;;;15.73;10.47;;;;;;;;;;6218201;23;20228;-88
2022/01/07 09:56:51;;;;;;;8.30;6.07;;;;;;;;;;6217879;23;20161;-87
2022/01/07 10:05:28;;;;;;;6.33;5.53;;;;;;;;;;6146344;23;20491;-86
2022/01/07 10:08:02;;;;;;;7.80;5.40;;;;;;;;;;6219528;23;20169;-87
2022/01/07 10:11:07;;;;;;;5.93;5.33;;;;;;;;;;6218708;23;20248;-87
2022/01/07 10:13:50;;;;;;;8.10;5.30;;;;;;;;;;6096478;23;20157;-86
2022/01/07 10:16:34;;;;;;;6.63;5.33;;;;;;;;;;6096060;23;20180;-86
2022/01/07 10:48:49;;;;;;;6.27;4.97;;;;;;;;;;6216541;23;20173;-86
2022/01/07 10:51:19;;;;;;;6.90;5.60;;;;;;;;;;6219262;23;20245;-85
2022/01/07 10:53:57;;;;;;;6.37;5.30;;;;;;;;;;6217848;23;20288;-87
2022/01/07 10:59:08;;;;;;;7.73;5.70;;;;;;;;;;6210870;23;20169;-87
2022/01/07 11:02:02;;;;;;;7.43;5.73;;;;;;;;;;6217921;23;20253;-86
2022/01/07 11:04:46;;;;;;;9.13;6.23;;;;;;;;;;6221294;23;20244;-88
2022/01/07 11:07:18;;;;;;;9.73;6.97;;;;;;;;;;6218607;23;20169;-87
2022/01/07 11:09:45;;;;;;;9.30;7.03;;;;;;;;;;6218746;23;20175;-86
2022/01/07 11:12:25;;;;;;;10.23;7.33;;;;;;;;;;6217604;23;20169;-87
2022/01/07 11:24:36;;;;;;;11.93;7.53;;;;;;;;;;6036076;23;20293;-91
2022/01/07 11:27:33;;;;;;;11.07;7.87;;;;;;;;;;6037760;23;20256;-82
2022/01/07 11:30:18;;;;;;;11.37;7.90;;;;;;;;;;6039534;23;20177;-85
2022/01/07 11:39:24;;;;;;;11.10;7.93;;;;;;;;;;6126502;23;20167;-86
2022/01/07 11:41:59;;;;;;;10.27;8.27;;;;;;;;;;6125359;23;20290;-87
2022/01/07 12:24:35;;;;;;;8.73;6.13;;;;;;;;;;6185969;23;20193;-80
2022/01/07 12:27:03;;;;;;;8.17;5.60;;;;;;;;;;6185711;23;20253;-82
2022/01/07 12:29:33;;;;;;;7.47;5.60;;;;;;;;;;6186363;23;20197;-81
2022/01/07 12:32:09;;;;;;;7.73;6.27;;;;;;;;;;6186320;23;20185;-82
2022/01/07 12:34:49;;;;;;;7.53;5.83;;;;;;;;;;6187895;23;20193;-82
2022/01/07 12:38:11;;;;;;;6.20;5.60;;;;;;;;;;6189888;23;20181;-85
2022/01/07 12:56:30;;;;;;;6.23;4.87;;;;;;;;;;5874113;24;20180;-83
2022/01/07 12:59:17;;;;;;;5.67;4.60;;;;;;;;;;5873871;24;20197;-83
2022/01/07 13:04:58;;;;;;;6.33;4.67;;;;;;;;;;5970384;24;20330;-81
2022/01/07 13:07:27;;;;;;;5.17;4.67;;;;;;;;;;5983999;24;20247;-81
2022/01/07 13:10:00;;;;;;;5.00;4.50;;;;;;;;;;5984405;24;20179;-80
2022/01/07 13:12:36;;;;;;;5.47;4.60;;;;;;;;;;5981476;24;20186;-81
2022/01/07 13:15:06;;;;;;;6.80;4.70;;;;;;;;;;5983593;24;20203;-78
2022/01/07 13:17:35;;;;;;;6.80;4.23;;;;;;;;;;5983220;24;20189;-83
2022/01/07 13:20:07;;;;;;;5.17;4.47;;;;;;;;;;5981554;23;20272;-81
2022/01/07 13:22:36;;;;;;;6.03;5.43;;;;;;;;;;5981755;24;20195;-80
2022/01/07 13:25:08;;;;;;;5.57;4.33;;;;;;;;;;6088301;23;20203;-83
2022/01/07 13:27:44;;;;;;;5.60;4.30;;;;;;;;;;6188156;23;20181;-84
2022/01/07 13:30:17;;;;;;;4.70;4.13;;;;;;;;;;6194801;23;20204;-83
2022/01/07 13:32:45;;;;;;;5.30;4.07;;;;;;;;;;6189365;23;20181;-83
2022/01/07 13:35:18;;;;;;;4.20;3.80;;;;;;;;;;6191813;23;20194;-82
2022/01/07 13:37:46;;;;;;;6.23;4.00;;;;;;;;;;6190571;23;20166;-83
2022/01/07 13:40:15;;;;;;;5.03;3.60;;;;;;;;;;6192247;23;20193;-82
2022/01/07 13:42:47;;;;;;;5.37;3.93;;;;;;;;;;6192867;23;20186;-79
2022/01/07 13:45:22;;;;;;;3.87;3.20;;;;;;;;;;6192976;23;20194;-83
2022/01/07 13:48:04;;;;;;;4.70;3.30;;;;;;;;;;6190130;23;20170;-83
2022/01/07 13:50:52;;;;;;;3.73;3.37;;;;;;;;;;6189810;23;20170;-81
2022/01/07 13:53:24;;;;;;;3.60;3.27;;;;;;;;;;6189932;23;20213;-81
2022/01/07 13:55:52;;;;;;;4.33;3.27;;;;;;;;;;6189747;23;20653;-81
2022/01/07 13:58:43;;;;;;;4.77;3.53;;;;;;;;;;6190105;23;20241;-83
2022/01/07 14:01:19;;;;;;;3.33;2.90;;;;;;;;;;6180168;23;20174;-82
2022/01/07 14:03:59;;;;;;;4.30;3.00;;;;;;;;;;6188957;23;20194;-81
2022/01/07 14:06:29;;;;;;;3.30;2.97;;;;;;;;;;6191274;23;20170;-82
2022/01/07 14:09:25;;;;;;;3.77;3.00;;;;;;;;;;6190497;23;20605;-83
2022/01/07 14:12:12;;;;;;;4.43;3.20;;;;;;;;;;6121885;23;20188;-81
2022/01/07 14:14:48;;;;;;;4.57;2.67;;;;;;;;;;6189551;23;20209;-80
2022/01/07 14:17:30;;;;;;;4.10;3.03;;;;;;;;;;6191448;23;20236;-87
2022/01/07 14:20:04;;;;;;;3.37;2.63;;;;;;;;;;6192028;23;20150;-82
2022/01/07 14:22:44;;;;;;;3.10;2.50;;;;;;;;;;6190918;23;20190;-86
2022/01/07 14:25:11;;;;;;;2.83;2.60;;;;;;;;;;6191548;23;20194;-81
2022/01/07 14:27:40;;;;;;;3.43;2.90;;;;;;;;;;6190317;23;20177;-80
2022/01/07 14:36:26;;;;;;;4.27;2.40;;;;;;;;;;6187676;23;20193;-82
2022/01/07 14:39:01;;;;;;;3.17;2.47;;;;;;;;;;6190985;23;20228;-82
2022/01/07 14:41:35;;;;;;;3.57;2.37;;;;;;;;;;6191256;23;20158;-83
2022/01/07 14:44:03;;;;;;;3.73;2.47;;;;;;;;;;6191407;23;20207;-79
2022/01/07 14:46:35;;;;;;;3.20;2.20;;;;;;;;;;6191076;23;20228;-82
2022/01/07 14:49:12;;;;;;;4.07;2.23;;;;;;;;;;6190351;23;20226;-81
2022/01/07 14:51:47;;;;;;;4.03;3.00;;;;;;;;;;6189661;23;20232;-81
2022/01/07 14:54:22;;;;;;;3.53;2.70;;;;;;;;;;6190349;23;20269;-81
2022/01/07 14:57:03;;;;;;;3.07;2.20;;;;;;;;;;6190917;23;20232;-82
2022/01/07 14:59:36;;;;;;;4.20;2.53;;;;;;;;;;6191363;23;20194;-82
2022/01/07 15:05:24;;;;;;;2.93;2.60;;;;;;;;;;6108716;23;20297;-82
2022/01/07 15:07:52;;;;;;;3.43;2.37;;;;;;;;;;6190605;23;20174;-79
2022/01/07 15:10:34;;;;;;;3.40;2.53;;;;;;;;;;6191343;23;20180;-84
2022/01/07 15:13:16;;;;;;;5.00;3.63;;;;;;;;;;6188393;23;20169;-83
2022/01/07 15:16:15;;;;;;;3.23;2.67;;;;;;;;;;6157562;23;20178;-83
2022/01/07 15:18:45;;;;;;;2.73;2.53;;;;;;;;;;6160766;23;20229;-81
2022/01/07 15:30:34;;;;;;;3.00;2.67;;;;;;;;;;6008852;23;20170;-81
2022/01/07 15:39:00;;;;;;;2.87;2.50;;;;;;;;;;6211818;23;20188;-87
2022/01/07 15:41:37;;;;;;;2.60;2.40;;;;;;;;;;6224746;23;20185;-87
2022/01/07 15:44:06;;;;;;;4.83;2.50;;;;;;;;;;6226525;23;20185;-87
2022/01/07 15:49:30;;;;;;;3.43;2.20;;;;;;;;;;6222999;23;20235;-88
2022/01/07 15:52:13;;;;;;;2.40;2.20;;;;;;;;;;6222168;23;20518;-86
2022/01/07 15:57:48;;;;;;;3.40;2.40;;;;;;;;;;6193760;23;20200;-85
2022/01/07 16:00:15;;;;;;;3.73;2.33;;;;;;;;;;6223071;23;20175;-85
2022/01/07 16:02:49;;;;;;;3.37;2.27;;;;;;;;;;6223499;23;20244;-84
2022/01/07 16:05:22;;;;;;;3.20;2.30;;;;;;;;;;6224478;23;20181;-85
2022/01/07 16:08:07;;;;;;;3.60;2.27;;;;;;;;;;6197413;23;20213;-85
2022/01/07 16:10:38;;;;;;;2.50;2.30;;;;;;;;;;6194009;23;20174;-85
2022/01/07 16:13:10;;;;;;;2.73;2.53;;;;;;;;;;6195773;23;20166;-85
2022/01/07 16:15:38;;;;;;;3.97;2.60;;;;;;;;;;6194793;23;20228;-84
2022/01/07 16:18:15;;;;;;;3.53;2.80;;;;;;;;;;6195186;23;20221;-84
2022/01/07 16:20:48;;;;;;;2.73;2.10;;;;;;;;;;6193302;23;20177;-84
2022/01/07 16:23:31;;;;;;;2.80;2.50;;;;;;;;;;6195198;23;20194;-84
2022/01/07 16:31:39;;;;;;;4.20;2.30;;;;;;;;;;6133014;23;20200;-83
2022/01/07 16:34:15;;;;;;;4.33;2.60;;;;;;;;;;6163847;23;20169;-83
2022/01/07 16:36:45;;;;;;;4.57;2.23;;;;;;;;;;6164153;23;20202;-87
2022/01/07 16:39:18;;;;;;;8.13;2.90;;;;;;;;;;6160281;23;20178;-84
2022/01/07 16:41:59;;;;;;;3.90;2.70;;;;;;;;;;6162357;23;20230;-83
2022/01/07 16:44:34;;;;;;;6.20;3.00;;;;;;;;;;6160678;23;20186;-83
2022/01/07 16:47:34;;;;;;;3.43;2.97;;;;;;;;;;6161337;23;20224;-83
2022/01/07 16:58:35;;;;;;;5.70;3.47;;;;;;;;;;6157131;23;20264;-83
2022/01/07 17:01:08;;;;;;;4.97;3.00;;;;;;;;;;6161346;23;20243;-83
2022/01/07 17:07:01;;;;;;;3.90;2.87;;;;;;;;;;6122637;23;20198;-83
2022/01/07 17:09:47;;;;;;;;;;;;;;;;;;;;;
2022/01/07 17:15:24;;;;;;;6.00;3.37;;;;;;;;;;6164366;23;20206;-83
2022/01/07 17:20:49;;;;;;;4.90;3.27;;;;;;;;;;6162325;23;20174;-83
2022/01/07 17:23:25;;;;;;;3.93;2.90;;;;;;;;;;6162988;23;20186;-83
2022/01/07 17:28:31;;;;;;;2.67;2.40;;;;;;;;;;6166625;23;20206;-83
2022/01/07 17:37:21;;;;;;;4.03;2.80;;;;;;;;;;6144319;23;20198;-82
2022/01/07 17:39:48;;;;;;;5.67;3.60;;;;;;;;;;6162612;23;20189;-84
2022/01/07 17:42:17;;;;;;;4.37;3.00;;;;;;;;;;6159225;23;20185;-84
2022/01/07 17:44:45;;;;;;;7.97;4.67;;;;;;;;;;6166834;23;20191;-83
2022/01/07 17:47:12;;;;;;;4.47;3.60;;;;;;;;;;6165952;23;20202;-85
2022/01/07 17:49:40;;;;;;;5.60;3.60;;;;;;;;;;6170245;23;20175;-84
2022/01/07 17:52:10;;;;;;;4.50;3.17;;;;;;;;;;6163966;23;20193;-87
2022/01/07 17:54:39;;;;;;;3.20;2.77;;;;;;;;;;6159945;23;20186;-88
2022/01/07 17:57:07;;;;;;;3.57;3.03;;;;;;;;;;6162886;23;20199;-87
2022/01/07 17:59:39;;;;;;;3.03;2.70;;;;;;;;;;6163030;23;20171;-87
2022/01/07 18:02:07;;;;;;;3.70;3.20;;;;;;;;;;6161263;23;20189;-87
2022/01/07 18:04:55;;;;;;;4.90;3.70;;;;;;;;;;6162188;23;20199;-88
2022/01/07 18:07:23;;;;;;;5.33;3.20;;;;;;;;;;6162238;23;20190;-87
2022/01/07 18:09:50;;;;;;;4.90;2.80;;;;;;;;;;6160437;23;20175;-87
2022/01/07 18:12:17;;;;;;;4.60;2.80;;;;;;;;;;6160035;23;20193;-87
2022/01/07 18:15:00;;;;;;;5.77;2.80;;;;;;;;;;6160465;23;20202;-88
2022/01/07 18:17:27;;;;;;;4.30;3.30;;;;;;;;;;6166350;23;20198;-85
2022/01/07 18:19:57;;;;;;;3.23;2.93;;;;;;;;;;6166953;23;20171;-86
2022/01/07 18:22:27;;;;;;;4.20;3.30;;;;;;;;;;6163915;23;20175;-85
2022/01/07 18:24:54;;;;;;;3.63;2.60;;;;;;;;;;6165484;23;20190;-86
2022/01/07 18:27:21;;;;;;;3.17;2.37;;;;;;;;;;6165284;23;20195;-86
2022/01/07 18:29:51;;;;;;;3.10;2.80;;;;;;;;;;6166079;23;20677;-86
2022/01/07 18:32:20;;;;;;;3.40;2.50;;;;;;;;;;6166133;23;20178;-86
2022/01/07 18:34:47;;;;;;;3.30;2.70;;;;;;;;;;6166812;23;20170;-85
2022/01/07 18:37:15;;;;;;;3.43;2.60;;;;;;;;;;6165203;23;20206;-86
2022/01/07 18:39:42;;;;;;;4.90;2.70;;;;;;;;;;6168102;23;20170;-86
2022/01/07 18:42:09;;;;;;;3.63;2.70;;;;;;;;;;6167437;23;20186;-86
2022/01/07 18:44:43;;;;;;;2.87;2.67;;;;;;;;;;6168152;23;20201;-85
2022/01/07 18:47:17;;;;;;;3.47;2.70;;;;;;;;;;6169066;23;20198;-85
2022/01/07 18:49:45;;;;;;;3.30;2.90;;;;;;;;;;6168386;23;20232;-85
2022/01/07 18:52:13;;;;;;;3.47;3.17;;;;;;;;;;6168962;23;20177;-85
2022/01/07 18:54:40;;;;;;;3.63;3.00;;;;;;;;;;6168393;23;20171;-84
2022/01/07 18:57:08;;;;;;;3.60;3.30;;;;;;;;;;6168675;23;20195;-84
2022/01/07 18:59:35;;;;;;;4.30;2.80;;;;;;;;;;6168598;23;20175;-84
2022/01/07 19:02:03;;;;;;;3.67;2.93;;;;;;;;;;6166113;23;20713;-84
2022/01/07 19:04:37;;;;;;;3.23;2.83;;;;;;;;;;6165813;23;20205;-85
2022/01/07 19:07:05;;;;;;;3.73;2.80;;;;;;;;;;6164186;23;20213;-85
2022/01/07 19:09:32;;;;;;;3.90;2.97;;;;;;;;;;6157521;23;20178;-85
2022/01/07 19:11:59;;;;;;;3.27;2.97;;;;;;;;;;6160281;23;20256;-85
2022/01/07 19:14:27;;;;;;;3.37;3.07;;;;;;;;;;6167978;23;20182;-85
2022/01/07 19:16:54;;;;;;;2.93;2.70;;;;;;;;;;6173093;23;20194;-84
2022/01/07 19:19:21;;;;;;;4.63;2.80;;;;;;;;;;6178104;23;20170;-84
2022/01/07 19:21:50;;;;;;;3.00;2.70;;;;;;;;;;6173099;23;20175;-85
2022/01/07 19:24:17;;;;;;;3.13;2.50;;;;;;;;;;6168932;23;20277;-84
2022/01/07 19:26:49;;;;;;;2.50;2.30;;;;;;;;;;6170607;23;20265;-85
2022/01/07 19:29:17;;;;;;;2.60;2.40;;;;;;;;;;6169783;23;20179;-85
2022/01/07 19:31:44;;;;;;;2.63;2.40;;;;;;;;;;6170359;23;20178;-85
2022/01/07 19:34:12;;;;;;;2.63;2.23;;;;;;;;;;6172589;23;20170;-86
2022/01/07 19:36:39;;;;;;;2.33;2.13;;;;;;;;;;6173006;23;20198;-84
2022/01/07 19:39:08;;;;;;;2.70;2.50;;;;;;;;;;6171517;23;20588;-85
2022/01/07 19:41:36;;;;;;;2.50;2.30;;;;;;;;;;6170153;23;20183;-85
2022/01/07 19:44:03;;;;;;;2.13;2.03;;;;;;;;;;6171737;23;20187;-85
2022/01/07 19:46:31;;;;;;;2.87;2.30;;;;;;;;;;6170770;23;20199;-84
2022/01/07 19:48:58;;;;;;;2.20;2.07;;;;;;;;;;6171460;23;20222;-84
2022/01/07 19:51:32;;;;;;;2.30;2.10;;;;;;;;;;6170125;23;20181;-84
2022/01/07 19:53:59;;;;;;;2.40;2.20;;;;;;;;;;6177119;23;20151;-85
2022/01/07 19:56:28;;;;;;;2.43;2.23;;;;;;;;;;6166444;23;20201;-85
2022/01/07 19:58:55;;;;;;;2.17;1.93;;;;;;;;;;6166125;23;20174;-84
2022/01/07 20:01:23;;;;;;;2.00;1.77;;;;;;;;;;6166035;23;20226;-84
2022/01/07 20:03:50;;;;;;;2.13;1.93;;;;;;;;;;6166712;23;20214;-84
2022/01/07 20:06:20;;;;;;;2.13;1.90;;;;;;;;;;6168026;23;20269;-84
2022/01/07 20:08:47;;;;;;;2.77;2.10;;;;;;;;;;6165468;23;20179;-83
2022/01/07 20:11:15;;;;;;;2.43;2.00;;;;;;;;;;6159805;23;20250;-84
2022/01/07 20:13:43;;;;;;;2.40;2.00;;;;;;;;;;6167169;23;20175;-83
2022/01/07 20:16:12;;;;;;;2.67;2.47;;;;;;;;;;6163889;23;20706;-84
2022/01/07 20:18:40;;;;;;;2.80;2.50;;;;;;;;;;6165937;23;20175;-84
2022/01/07 20:21:10;;;;;;;2.30;2.10;;;;;;;;;;6160488;23;20178;-84
2022/01/07 20:23:39;;;;;;;2.00;1.90;;;;;;;;;;6160803;23;20228;-85
2022/01/07 20:26:07;;;;;;;3.10;2.33;;;;;;;;;;6160829;23;20212;-84
2022/01/07 20:28:34;;;;;;;2.57;2.33;;;;;;;;;;6165139;23;20181;-86
2022/01/07 20:31:03;;;;;;;2.80;2.27;;;;;;;;;;6163394;23;20186;-85
2022/01/07 20:33:31;;;;;;;3.17;2.13;;;;;;;;;;6164928;23;20254;-85
2022/01/07 20:36:07;;;;;;;2.10;1.90;;;;;;;;;;6159359;23;20174;-85
2022/01/07 20:38:34;;;;;;;2.47;2.20;;;;;;;;;;6158075;23;20178;-85
2022/01/07 20:41:01;;;;;;;2.47;2.27;;;;;;;;;;6157687;23;20201;-86
2022/01/07 20:43:29;;;;;;;2.23;2.03;;;;;;;;;;6159072;23;20190;-85
2022/01/07 20:45:56;;;;;;;2.30;2.10;;;;;;;;;;6159914;23;20194;-85
2022/01/07 20:48:26;;;;;;;2.13;1.93;;;;;;;;;;6159128;23;20278;-86
2022/01/07 20:50:59;;;;;;;2.10;1.90;;;;;;;;;;6154151;23;20182;-90
2022/01/07 20:53:37;;;;;;;2.13;1.93;;;;;;;;;;6156283;23;20173;-86
2022/01/07 20:56:05;;;;;;;2.33;1.93;;;;;;;;;;6156122;23;20229;-85
2022/01/07 20:58:32;;;;;;;3.43;1.90;;;;;;;;;;6154500;23;20174;-86
2022/01/07 21:01:19;;;;;;;2.23;1.80;;;;;;;;;;6154224;23;20186;-90
2022/01/07 21:03:50;;;;;;;1.90;1.70;;;;;;;;;;6154642;23;20167;-86
2022/01/07 21:06:24;;;;;;;2.30;2.10;;;;;;;;;;6153898;23;20225;-86
2022/01/07 21:08:51;;;;;;;3.07;1.83;;;;;;;;;;6154930;23;20166;-86
2022/01/07 21:11:20;;;;;;;2.20;2.00;;;;;;;;;;6152881;23;20236;-86
2022/01/07 21:13:47;;;;;;;2.33;1.83;;;;;;;;;;6154921;23;20182;-86
2022/01/07 21:16:19;;;;;;;2.60;1.87;;;;;;;;;;6154659;23;20175;-88
2022/01/07 21:18:49;;;;;;;2.20;2.00;;;;;;;;;;6155078;23;20178;-87
2022/01/07 21:21:16;;;;;;;1.50;1.40;;;;;;;;;;6154228;23;20175;-87
2022/01/07 21:23:43;;;;;;;1.67;1.57;;;;;;;;;;6154932;23;20170;-86
2022/01/07 21:26:11;;;;;;;1.93;1.70;;;;;;;;;;6155973;23;20174;-86
2022/01/07 21:28:44;;;;;;;1.80;1.70;;;;;;;;;;6155162;23;20250;-86
2022/01/07 21:31:11;;;;;;;1.70;1.60;;;;;;;;;;6154824;23;20225;-86
2022/01/07 21:33:44;;;;;;;2.17;1.70;;;;;;;;;;6155970;23;20185;-86
2022/01/07 21:39:12;;;;;;;1.77;1.60;;;;;;;;;;6187527;23;20192;-84
2022/01/07 21:41:42;;;;;;;3.50;1.83;;;;;;;;;;6188513;23;20245;-84
2022/01/07 21:44:29;;;;;;;2.40;1.67;;;;;;;;;;6189300;23;20193;-84
2022/01/07 21:47:02;;;;;;;2.00;1.90;;;;;;;;;;6196445;23;20271;-84
2022/01/07 21:49:51;;;;;;;1.90;1.80;;;;;;;;;;6219796;23;20161;-84
2022/01/07 21:52:41;;;;;;;2.90;1.60;;;;;;;;;;6218941;23;20176;-85